sensor_id;sensor_type;location;lat;lon;timestamp;temperature;humidity
17948;DHT22;9099;47.958;11.366;2023-11-22T00:01:11;7.50;99.90
17948;DHT22;9099;47.958;11.366;2023-11-22T00:03:38;7.50;99.90
17948;DHT22;9099;47.958;11.366;2023-11-22T00:06:06;7.60;99.90
17948;DHT22;9099;47.958;11.366;2023-11-22T00:08:33;7.60;99.90
17948;DHT22;9099;47.958;11.366;2023-11-22T00:11:00;7.70;99.90
17948;DHT22;9099;47.958;11.366;2023-11-22T00:13:29;7.70;99.90
17948;DHT22;9099;47.958;11.366;2023-11-22T00:15:57;7.70;99.90
17948;DHT22;9099;47.958;11.366;2023-11-22T00:18:24;7.70;99.90
17948;DHT22;9099;47.958;11.366;2023-11-22T00:20:51;7.70;99.90
17948;DHT22;9099;47.958;11.366;2023-11-22T00:23:18;7.70;99.90
17948;DHT22;9099;47.958;11.366;2023-11-22T00:25:45;7.70;99.90
17948;DHT22;9099;47.958;11.366;2023-11-22T00:28:12;7.60;99.90
17948;DHT22;9099;47.958;11.366;2023-11-22T00:30:40;7.60;99.90
17948;DHT22;9099;47.958;11.366;2023-11-22T00:33:07;7.60;99.90
17948;DHT22;9099;47.958;11.366;2023-11-22T00:35:34;7.50;99.90
17948;DHT22;9099;47.958;11.366;2023-11-22T00:38:01;7.50;99.90
17948;DHT22;9099;47.958;11.366;2023-11-22T00:40:28;7.50;99.90
17948;DHT22;9099;47.958;11.366;2023-11-22T00:42:55;7.40;99.90
17948;DHT22;9099;47.958;11.366;2023-11-22T00:45:22;7.50;99.90
17948;DHT22;9099;47.958;11.366;2023-11-22T00:47:50;7.50;99.90
17948;DHT22;9099;47.958;11.366;2023-11-22T00:50:18;7.50;99.90
17948;DHT22;9099;47.958;11.366;2023-11-22T00:52:45;7.50;99.90
17948;DHT22;9099;47.958;11.366;2023-11-22T00:55:12;7.50;99.90
17948;DHT22;9099;47.958;11.366;2023-11-22T00:57:39;7.50;99.90
17948;DHT22;9099;47.958;11.366;2023-11-22T01:00:07;7.50;99.90
17948;DHT22;9099;47.958;11.366;2023-11-22T01:02:35;7.50;99.90
17948;DHT22;9099;47.958;11.366;2023-11-22T01:05:05;7.60;99.90
17948;DHT22;9099;47.958;11.366;2023-11-22T01:07:35;7.60;99.90
17948;DHT22;9099;47.958;11.366;2023-11-22T01:10:02;7.60;99.90
17948;DHT22;9099;47.958;11.366;2023-11-22T01:12:29;7.60;99.90
17948;DHT22;9099;47.958;11.366;2023-11-22T01:14:56;7.60;99.90
17948;DHT22;9099;47.958;11.366;2023-11-22T01:17:22;7.50;99.90
17948;DHT22;9099;47.958;11.366;2023-11-22T01:19:49;7.50;99.90
17948;DHT22;9099;47.958;11.366;2023-11-22T01:22:19;7.40;99.90
17948;DHT22;9099;47.958;11.366;2023-11-22T01:24:46;7.50;99.90
17948;DHT22;9099;47.958;11.366;2023-11-22T01:27:13;7.60;99.90
17948;DHT22;9099;47.958;11.366;2023-11-22T01:29:39;7.60;99.90
17948;DHT22;9099;47.958;11.366;2023-11-22T01:32:07;7.70;99.90
17948;DHT22;9099;47.958;11.366;2023-11-22T01:34:34;7.70;99.90
17948;DHT22;9099;47.958;11.366;2023-11-22T01:37:02;7.70;99.90
17948;DHT22;9099;47.958;11.366;2023-11-22T01:39:31;7.60;99.90
17948;DHT22;9099;47.958;11.366;2023-11-22T01:41:57;7.60;99.90
17948;DHT22;9099;47.958;11.366;2023-11-22T01:44:24;7.60;99.90
17948;DHT22;9099;47.958;11.366;2023-11-22T01:46:52;7.60;99.90
17948;DHT22;9099;47.958;11.366;2023-11-22T01:49:19;7.50;99.90
17948;DHT22;9099;47.958;11.366;2023-11-22T01:51:45;7.50;99.90
17948;DHT22;9099;47.958;11.366;2023-11-22T01:54:12;7.40;99.90
17948;DHT22;9099;47.958;11.366;2023-11-22T01:56:40;7.40;99.90
17948;DHT22;9099;47.958;11.366;2023-11-22T01:59:07;7.30;99.90
17948;DHT22;9099;47.958;11.366;2023-11-22T02:01:34;7.30;99.90
17948;DHT22;9099;47.958;11.366;2023-11-22T02:04:02;7.30;99.90
17948;DHT22;9099;47.958;11.366;2023-11-22T02:06:29;7.20;99.90
17948;DHT22;9099;47.958;11.366;2023-11-22T02:08:57;7.10;99.90
17948;DHT22;9099;47.958;11.366;2023-11-22T02:11:24;7.20;99.90
17948;DHT22;9099;47.958;11.366;2023-11-22T02:13:54;7.20;99.90
17948;DHT22;9099;47.958;11.366;2023-11-22T02:16:21;7.20;99.90
17948;DHT22;9099;47.958;11.366;2023-11-22T02:18:48;7.30;99.90
17948;DHT22;9099;47.958;11.366;2023-11-22T02:21:16;7.30;99.90
17948;DHT22;9099;47.958;11.366;2023-11-22T02:23:45;7.30;99.90
17948;DHT22;9099;47.958;11.366;2023-11-22T02:26:12;7.30;99.90
17948;DHT22;9099;47.958;11.366;2023-11-22T02:28:43;7.30;99.90
17948;DHT22;9099;47.958;11.366;2023-11-22T02:31:10;7.30;99.90
17948;DHT22;9099;47.958;11.366;2023-11-22T02:33:37;7.30;99.90
17948;DHT22;9099;47.958;11.366;2023-11-22T02:36:04;7.30;99.90
17948;DHT22;9099;47.958;11.366;2023-11-22T02:38:31;7.30;99.90
17948;DHT22;9099;47.958;11.366;2023-11-22T02:41:01;7.30;99.90
17948;DHT22;9099;47.958;11.366;2023-11-22T02:43:29;7.30;99.90
17948;DHT22;9099;47.958;11.366;2023-11-22T02:45:56;7.30;99.90
17948;DHT22;9099;47.958;11.366;2023-11-22T02:48:23;7.30;99.90
17948;DHT22;9099;47.958;11.366;2023-11-22T02:50:50;7.30;99.90
17948;DHT22;9099;47.958;11.366;2023-11-22T02:53:19;7.40;99.90
17948;DHT22;9099;47.958;11.366;2023-11-22T02:55:47;7.40;99.90
17948;DHT22;9099;47.958;11.366;2023-11-22T02:58:15;7.40;99.90
17948;DHT22;9099;47.958;11.366;2023-11-22T03:00:42;7.40;99.90
17948;DHT22;9099;47.958;11.366;2023-11-22T03:03:09;7.40;99.90
17948;DHT22;9099;47.958;11.366;2023-11-22T03:05:37;7.40;99.90
17948;DHT22;9099;47.958;11.366;2023-11-22T03:08:04;7.40;99.90
17948;DHT22;9099;47.958;11.366;2023-11-22T03:10:32;7.50;99.90
17948;DHT22;9099;47.958;11.366;2023-11-22T03:12:59;7.50;99.90
17948;DHT22;9099;47.958;11.366;2023-11-22T03:15:27;7.50;99.90
17948;DHT22;9099;47.958;11.366;2023-11-22T03:17:54;7.50;99.90
17948;DHT22;9099;47.958;11.366;2023-11-22T03:20:21;7.30;99.90
17948;DHT22;9099;47.958;11.366;2023-11-22T03:22:48;7.10;99.90
17948;DHT22;9099;47.958;11.366;2023-11-22T03:25:16;6.90;99.90
17948;DHT22;9099;47.958;11.366;2023-11-22T03:27:43;6.70;99.90
17948;DHT22;9099;47.958;11.366;2023-11-22T03:30:12;6.50;99.90
17948;DHT22;9099;47.958;11.366;2023-11-22T03:32:42;6.30;99.90
17948;DHT22;9099;47.958;11.366;2023-11-22T03:35:10;6.10;99.90
17948;DHT22;9099;47.958;11.366;2023-11-22T03:37:37;5.90;99.90
17948;DHT22;9099;47.958;11.366;2023-11-22T03:40:05;5.80;99.90
17948;DHT22;9099;47.958;11.366;2023-11-22T03:42:32;5.70;99.90
17948;DHT22;9099;47.958;11.366;2023-11-22T03:44:59;5.60;99.90
17948;DHT22;9099;47.958;11.366;2023-11-22T03:47:26;5.50;99.90
17948;DHT22;9099;47.958;11.366;2023-11-22T03:49:54;5.40;99.90
17948;DHT22;9099;47.958;11.366;2023-11-22T03:52:21;5.30;99.90
17948;DHT22;9099;47.958;11.366;2023-11-22T03:54:48;5.20;99.90
17948;DHT22;9099;47.958;11.366;2023-11-22T03:57:15;5.10;99.90
17948;DHT22;9099;47.958;11.366;2023-11-22T03:59:42;4.90;99.90
17948;DHT22;9099;47.958;11.366;2023-11-22T04:02:09;4.80;99.90
17948;DHT22;9099;47.958;11.366;2023-11-22T04:04:36;4.70;99.90
17948;DHT22;9099;47.958;11.366;2023-11-22T04:07:06;4.60;99.90
17948;DHT22;9099;47.958;11.366;2023-11-22T04:09:33;4.60;99.90
17948;DHT22;9099;47.958;11.366;2023-11-22T04:12:00;4.50;99.90
17948;DHT22;9099;47.958;11.366;2023-11-22T04:14:26;4.50;99.90
17948;DHT22;9099;47.958;11.366;2023-11-22T04:16:53;4.50;99.90
17948;DHT22;9099;47.958;11.366;2023-11-22T04:19:20;4.40;99.90
17948;DHT22;9099;47.958;11.366;2023-11-22T04:21:47;4.40;99.90
17948;DHT22;9099;47.958;11.366;2023-11-22T04:24:16;4.50;99.90
17948;DHT22;9099;47.958;11.366;2023-11-22T04:26:43;4.60;99.90
17948;DHT22;9099;47.958;11.366;2023-11-22T04:29:10;4.60;99.90
17948;DHT22;9099;47.958;11.366;2023-11-22T04:31:37;4.50;99.90
17948;DHT22;9099;47.958;11.366;2023-11-22T04:34:04;4.50;99.90
17948;DHT22;9099;47.958;11.366;2023-11-22T04:36:31;4.50;99.90
17948;DHT22;9099;47.958;11.366;2023-11-22T04:38:58;4.50;99.90
17948;DHT22;9099;47.958;11.366;2023-11-22T04:41:27;4.40;99.90
17948;DHT22;9099;47.958;11.366;2023-11-22T04:43:54;4.50;99.90
17948;DHT22;9099;47.958;11.366;2023-11-22T04:46:21;4.50;99.90
17948;DHT22;9099;47.958;11.366;2023-11-22T04:48:48;4.50;99.90
17948;DHT22;9099;47.958;11.366;2023-11-22T04:51:16;4.50;99.90
17948;DHT22;9099;47.958;11.366;2023-11-22T04:53:44;4.50;99.90
17948;DHT22;9099;47.958;11.366;2023-11-22T04:56:11;4.50;99.90
17948;DHT22;9099;47.958;11.366;2023-11-22T04:58:39;4.40;99.90
17948;DHT22;9099;47.958;11.366;2023-11-22T05:01:06;4.30;99.90
17948;DHT22;9099;47.958;11.366;2023-11-22T05:03:36;4.30;99.90
17948;DHT22;9099;47.958;11.366;2023-11-22T05:06:03;4.20;99.90
17948;DHT22;9099;47.958;11.366;2023-11-22T05:08:30;4.30;99.90
17948;DHT22;9099;47.958;11.366;2023-11-22T05:10:57;4.30;99.90
17948;DHT22;9099;47.958;11.366;2023-11-22T05:13:24;4.30;99.90
17948;DHT22;9099;47.958;11.366;2023-11-22T05:15:52;4.30;99.90
17948;DHT22;9099;47.958;11.366;2023-11-22T05:18:19;4.40;99.90
17948;DHT22;9099;47.958;11.366;2023-11-22T05:20:47;4.50;99.90
17948;DHT22;9099;47.958;11.366;2023-11-22T05:23:14;4.50;99.90
17948;DHT22;9099;47.958;11.366;2023-11-22T05:25:41;4.50;99.90
17948;DHT22;9099;47.958;11.366;2023-11-22T05:28:08;4.60;99.90
17948;DHT22;9099;47.958;11.366;2023-11-22T05:30:35;4.60;99.90
17948;DHT22;9099;47.958;11.366;2023-11-22T05:33:03;4.70;99.90
17948;DHT22;9099;47.958;11.366;2023-11-22T05:35:30;4.60;99.90
17948;DHT22;9099;47.958;11.366;2023-11-22T05:37:57;4.60;99.90
17948;DHT22;9099;47.958;11.366;2023-11-22T05:40:24;4.50;99.90
17948;DHT22;9099;47.958;11.366;2023-11-22T05:42:50;4.40;99.90
17948;DHT22;9099;47.958;11.366;2023-11-22T05:45:17;4.30;99.90
17948;DHT22;9099;47.958;11.366;2023-11-22T05:47:44;4.30;99.90
17948;DHT22;9099;47.958;11.366;2023-11-22T05:50:13;4.20;99.90
17948;DHT22;9099;47.958;11.366;2023-11-22T05:52:39;4.20;99.90
17948;DHT22;9099;47.958;11.366;2023-11-22T05:55:07;4.10;99.90
17948;DHT22;9099;47.958;11.366;2023-11-22T05:57:34;4.00;99.90
17948;DHT22;9099;47.958;11.366;2023-11-22T06:00:01;4.00;99.90
17948;DHT22;9099;47.958;11.366;2023-11-22T06:02:28;4.10;99.90
17948;DHT22;9099;47.958;11.366;2023-11-22T06:04:55;4.10;99.90
17948;DHT22;9099;47.958;11.366;2023-11-22T06:07:23;4.00;99.90
17948;DHT22;9099;47.958;11.366;2023-11-22T06:09:50;3.90;99.90
17948;DHT22;9099;47.958;11.366;2023-11-22T06:12:17;3.90;99.90
17948;DHT22;9099;47.958;11.366;2023-11-22T06:14:46;4.00;99.90
17948;DHT22;9099;47.958;11.366;2023-11-22T06:17:13;3.90;99.90
17948;DHT22;9099;47.958;11.366;2023-11-22T06:19:40;3.90;99.90
17948;DHT22;9099;47.958;11.366;2023-11-22T06:22:06;3.90;99.90
17948;DHT22;9099;47.958;11.366;2023-11-22T06:24:35;4.00;99.90
17948;DHT22;9099;47.958;11.366;2023-11-22T06:27:02;4.00;99.90
17948;DHT22;9099;47.958;11.366;2023-11-22T06:29:29;4.10;99.90
17948;DHT22;9099;47.958;11.366;2023-11-22T06:31:56;4.20;99.90
17948;DHT22;9099;47.958;11.366;2023-11-22T06:34:23;4.20;99.90
17948;DHT22;9099;47.958;11.366;2023-11-22T06:36:50;4.30;99.90
17948;DHT22;9099;47.958;11.366;2023-11-22T06:39:17;4.10;99.90
17948;DHT22;9099;47.958;11.366;2023-11-22T06:41:45;4.10;99.90
17948;DHT22;9099;47.958;11.366;2023-11-22T06:44:13;4.10;99.90
17948;DHT22;9099;47.958;11.366;2023-11-22T06:46:40;4.10;99.90
17948;DHT22;9099;47.958;11.366;2023-11-22T06:49:07;4.00;99.90
17948;DHT22;9099;47.958;11.366;2023-11-22T06:51:34;4.00;99.90
17948;DHT22;9099;47.958;11.366;2023-11-22T06:54:01;4.00;99.90
17948;DHT22;9099;47.958;11.366;2023-11-22T06:56:28;4.00;99.90
17948;DHT22;9099;47.958;11.366;2023-11-22T06:58:56;4.10;99.90
17948;DHT22;9099;47.958;11.366;2023-11-22T07:01:23;4.10;99.90
17948;DHT22;9099;47.958;11.366;2023-11-22T07:03:52;4.10;99.90
17948;DHT22;9099;47.958;11.366;2023-11-22T07:06:19;4.20;99.90
17948;DHT22;9099;47.958;11.366;2023-11-22T07:08:48;4.20;99.90
17948;DHT22;9099;47.958;11.366;2023-11-22T07:11:21;4.30;99.90
17948;DHT22;9099;47.958;11.366;2023-11-22T07:13:50;4.30;99.90
17948;DHT22;9099;47.958;11.366;2023-11-22T07:16:18;4.30;99.90
17948;DHT22;9099;47.958;11.366;2023-11-22T07:18:46;4.40;99.90
17948;DHT22;9099;47.958;11.366;2023-11-22T07:21:12;4.30;99.90
17948;DHT22;9099;47.958;11.366;2023-11-22T07:23:39;4.20;99.90
17948;DHT22;9099;47.958;11.366;2023-11-22T07:26:06;4.20;99.90
17948;DHT22;9099;47.958;11.366;2023-11-22T07:28:33;4.20;99.90
17948;DHT22;9099;47.958;11.366;2023-11-22T07:31:01;4.20;99.90
17948;DHT22;9099;47.958;11.366;2023-11-22T07:33:30;4.20;99.90
17948;DHT22;9099;47.958;11.366;2023-11-22T07:35:57;4.30;99.90
17948;DHT22;9099;47.958;11.366;2023-11-22T07:38:24;4.20;99.90
17948;DHT22;9099;47.958;11.366;2023-11-22T07:40:51;4.20;99.90
17948;DHT22;9099;47.958;11.366;2023-11-22T07:43:18;4.20;99.90
17948;DHT22;9099;47.958;11.366;2023-11-22T07:45:45;4.30;99.90
17948;DHT22;9099;47.958;11.366;2023-11-22T07:48:13;4.30;99.90
17948;DHT22;9099;47.958;11.366;2023-11-22T07:50:41;4.30;99.90
17948;DHT22;9099;47.958;11.366;2023-11-22T07:53:09;4.40;99.90
17948;DHT22;9099;47.958;11.366;2023-11-22T07:55:37;4.30;99.90
17948;DHT22;9099;47.958;11.366;2023-11-22T07:58:03;4.10;99.90
17948;DHT22;9099;47.958;11.366;2023-11-22T08:00:32;4.10;99.90
17948;DHT22;9099;47.958;11.366;2023-11-22T08:02:59;4.10;99.90
17948;DHT22;9099;47.958;11.366;2023-11-22T08:05:28;4.20;99.90
17948;DHT22;9099;47.958;11.366;2023-11-22T08:07:56;4.10;99.90
17948;DHT22;9099;47.958;11.366;2023-11-22T08:10:23;4.30;99.90
17948;DHT22;9099;47.958;11.366;2023-11-22T08:12:51;4.20;99.90
17948;DHT22;9099;47.958;11.366;2023-11-22T08:15:18;4.10;99.90
17948;DHT22;9099;47.958;11.366;2023-11-22T08:17:45;4.10;99.90
17948;DHT22;9099;47.958;11.366;2023-11-22T08:20:12;4.20;99.90
17948;DHT22;9099;47.958;11.366;2023-11-22T08:22:43;4.20;99.90
17948;DHT22;9099;47.958;11.366;2023-11-22T08:25:12;4.30;99.90
17948;DHT22;9099;47.958;11.366;2023-11-22T08:27:39;4.30;99.90
17948;DHT22;9099;47.958;11.366;2023-11-22T08:30:07;4.30;99.90
17948;DHT22;9099;47.958;11.366;2023-11-22T08:32:39;4.30;99.90
17948;DHT22;9099;47.958;11.366;2023-11-22T08:35:08;4.30;99.90
17948;DHT22;9099;47.958;11.366;2023-11-22T08:37:35;4.40;99.90
17948;DHT22;9099;47.958;11.366;2023-11-22T08:40:05;4.40;99.90
17948;DHT22;9099;47.958;11.366;2023-11-22T08:42:34;4.20;99.90
17948;DHT22;9099;47.958;11.366;2023-11-22T08:45:02;4.20;99.90
17948;DHT22;9099;47.958;11.366;2023-11-22T08:47:29;4.30;99.90
17948;DHT22;9099;47.958;11.366;2023-11-22T08:49:56;4.30;99.90
17948;DHT22;9099;47.958;11.366;2023-11-22T08:52:24;4.30;99.90
17948;DHT22;9099;47.958;11.366;2023-11-22T08:54:51;4.20;99.90
17948;DHT22;9099;47.958;11.366;2023-11-22T08:57:18;4.20;99.90
17948;DHT22;9099;47.958;11.366;2023-11-22T08:59:47;4.30;99.90
17948;DHT22;9099;47.958;11.366;2023-11-22T09:02:14;4.30;99.90
17948;DHT22;9099;47.958;11.366;2023-11-22T09:04:41;4.40;99.90
17948;DHT22;9099;47.958;11.366;2023-11-22T09:07:08;4.40;99.90
17948;DHT22;9099;47.958;11.366;2023-11-22T09:09:36;4.40;99.90
17948;DHT22;9099;47.958;11.366;2023-11-22T09:12:03;4.40;99.90
17948;DHT22;9099;47.958;11.366;2023-11-22T09:14:38;4.50;99.90
17948;DHT22;9099;47.958;11.366;2023-11-22T09:17:07;4.60;99.90
17948;DHT22;9099;47.958;11.366;2023-11-22T09:19:35;4.70;99.90
17948;DHT22;9099;47.958;11.366;2023-11-22T09:22:03;4.70;99.90
17948;DHT22;9099;47.958;11.366;2023-11-22T09:24:32;4.70;99.90
17948;DHT22;9099;47.958;11.366;2023-11-22T09:26:58;4.70;99.90
17948;DHT22;9099;47.958;11.366;2023-11-22T09:29:26;4.50;99.90
17948;DHT22;9099;47.958;11.366;2023-11-22T09:31:53;4.40;99.90
17948;DHT22;9099;47.958;11.366;2023-11-22T09:34:21;4.40;99.90
17948;DHT22;9099;47.958;11.366;2023-11-22T09:36:48;4.50;99.90
17948;DHT22;9099;47.958;11.366;2023-11-22T09:39:15;4.60;99.90
17948;DHT22;9099;47.958;11.366;2023-11-22T09:41:46;4.60;99.90
17948;DHT22;9099;47.958;11.366;2023-11-22T09:44:14;4.60;99.90
17948;DHT22;9099;47.958;11.366;2023-11-22T09:46:42;4.60;99.90
17948;DHT22;9099;47.958;11.366;2023-11-22T09:49:14;4.40;99.90
17948;DHT22;9099;47.958;11.366;2023-11-22T09:51:44;4.40;99.90
17948;DHT22;9099;47.958;11.366;2023-11-22T09:54:13;4.30;99.90
17948;DHT22;9099;47.958;11.366;2023-11-22T09:56:41;4.30;99.90
17948;DHT22;9099;47.958;11.366;2023-11-22T09:59:16;4.10;99.90
17948;DHT22;9099;47.958;11.366;2023-11-22T10:01:44;4.10;99.90
17948;DHT22;9099;47.958;11.366;2023-11-22T10:04:11;4.00;99.90
17948;DHT22;9099;47.958;11.366;2023-11-22T10:06:38;4.00;99.90
17948;DHT22;9099;47.958;11.366;2023-11-22T10:09:07;4.10;99.90
17948;DHT22;9099;47.958;11.366;2023-11-22T10:11:35;4.20;99.90
17948;DHT22;9099;47.958;11.366;2023-11-22T10:14:04;4.30;99.90
17948;DHT22;9099;47.958;11.366;2023-11-22T10:16:31;4.20;99.90
17948;DHT22;9099;47.958;11.366;2023-11-22T10:18:58;4.00;99.90
17948;DHT22;9099;47.958;11.366;2023-11-22T10:21:25;4.10;99.90
17948;DHT22;9099;47.958;11.366;2023-11-22T10:23:54;4.10;99.90
17948;DHT22;9099;47.958;11.366;2023-11-22T10:26:23;4.00;99.90
17948;DHT22;9099;47.958;11.366;2023-11-22T10:28:51;4.00;99.90
17948;DHT22;9099;47.958;11.366;2023-11-22T10:31:19;4.10;99.90
17948;DHT22;9099;47.958;11.366;2023-11-22T10:33:47;4.10;99.90
17948;DHT22;9099;47.958;11.366;2023-11-22T10:36:14;4.10;99.90
17948;DHT22;9099;47.958;11.366;2023-11-22T10:38:45;4.10;99.90
17948;DHT22;9099;47.958;11.366;2023-11-22T10:41:13;4.10;99.90
17948;DHT22;9099;47.958;11.366;2023-11-22T10:43:41;4.00;99.90
17948;DHT22;9099;47.958;11.366;2023-11-22T10:46:08;4.10;99.90
17948;DHT22;9099;47.958;11.366;2023-11-22T10:48:36;4.00;99.90
17948;DHT22;9099;47.958;11.366;2023-11-22T10:51:04;4.00;99.90
17948;DHT22;9099;47.958;11.366;2023-11-22T10:53:33;3.90;99.90
17948;DHT22;9099;47.958;11.366;2023-11-22T10:56:05;3.80;99.90
17948;DHT22;9099;47.958;11.366;2023-11-22T10:58:42;3.80;99.90
17948;DHT22;9099;47.958;11.366;2023-11-22T11:01:12;4.00;99.90
17948;DHT22;9099;47.958;11.366;2023-11-22T11:03:44;3.90;99.90
17948;DHT22;9099;47.958;11.366;2023-11-22T11:06:16;3.90;99.90
17948;DHT22;9099;47.958;11.366;2023-11-22T11:08:47;3.90;99.90
17948;DHT22;9099;47.958;11.366;2023-11-22T11:11:15;4.00;99.90
17948;DHT22;9099;47.958;11.366;2023-11-22T11:13:43;4.00;99.90
17948;DHT22;9099;47.958;11.366;2023-11-22T11:16:11;4.00;99.90
17948;DHT22;9099;47.958;11.366;2023-11-22T11:18:38;4.10;99.90
17948;DHT22;9099;47.958;11.366;2023-11-22T11:21:08;4.10;99.90
17948;DHT22;9099;47.958;11.366;2023-11-22T11:23:39;4.20;99.90
17948;DHT22;9099;47.958;11.366;2023-11-22T11:26:14;4.10;99.90
17948;DHT22;9099;47.958;11.366;2023-11-22T11:28:45;4.10;99.90
17948;DHT22;9099;47.958;11.366;2023-11-22T11:31:13;4.10;99.90
17948;DHT22;9099;47.958;11.366;2023-11-22T11:33:56;4.20;99.90
17948;DHT22;9099;47.958;11.366;2023-11-22T11:36:26;4.20;99.90
17948;DHT22;9099;47.958;11.366;2023-11-22T11:38:55;4.20;99.90
17948;DHT22;9099;47.958;11.366;2023-11-22T11:41:25;4.10;99.90
17948;DHT22;9099;47.958;11.366;2023-11-22T11:43:56;4.20;99.90
17948;DHT22;9099;47.958;11.366;2023-11-22T11:46:23;4.20;99.90
17948;DHT22;9099;47.958;11.366;2023-11-22T11:48:51;4.30;99.90
17948;DHT22;9099;47.958;11.366;2023-11-22T11:51:21;4.40;99.90
17948;DHT22;9099;47.958;11.366;2023-11-22T11:53:48;4.50;99.90
17948;DHT22;9099;47.958;11.366;2023-11-22T11:56:15;4.50;99.90
17948;DHT22;9099;47.958;11.366;2023-11-22T11:58:43;4.50;99.90
17948;DHT22;9099;47.958;11.366;2023-11-22T12:01:13;4.50;99.90
17948;DHT22;9099;47.958;11.366;2023-11-22T12:03:40;4.50;99.90
17948;DHT22;9099;47.958;11.366;2023-11-22T12:06:08;4.50;99.90
17948;DHT22;9099;47.958;11.366;2023-11-22T12:08:35;4.70;99.90
17948;DHT22;9099;47.958;11.366;2023-11-22T12:11:02;4.70;99.90
17948;DHT22;9099;47.958;11.366;2023-11-22T12:13:32;4.70;99.90
17948;DHT22;9099;47.958;11.366;2023-11-22T12:16:00;4.70;99.90
17948;DHT22;9099;47.958;11.366;2023-11-22T12:18:29;4.80;99.90
17948;DHT22;9099;47.958;11.366;2023-11-22T12:20:59;4.70;99.90
17948;DHT22;9099;47.958;11.366;2023-11-22T12:23:27;4.80;99.90
17948;DHT22;9099;47.958;11.366;2023-11-22T12:25:55;4.70;99.90
17948;DHT22;9099;47.958;11.366;2023-11-22T12:28:23;4.60;99.90
17948;DHT22;9099;47.958;11.366;2023-11-22T12:30:50;4.60;99.90
17948;DHT22;9099;47.958;11.366;2023-11-22T12:33:17;4.60;99.90
17948;DHT22;9099;47.958;11.366;2023-11-22T12:35:46;4.50;99.90
17948;DHT22;9099;47.958;11.366;2023-11-22T12:38:14;4.60;99.90
17948;DHT22;9099;47.958;11.366;2023-11-22T12:40:44;4.60;99.90
17948;DHT22;9099;47.958;11.366;2023-11-22T12:43:13;4.60;99.90
17948;DHT22;9099;47.958;11.366;2023-11-22T12:45:40;4.60;99.90
17948;DHT22;9099;47.958;11.366;2023-11-22T12:48:22;4.70;99.90
17948;DHT22;9099;47.958;11.366;2023-11-22T12:50:51;4.60;99.90
17948;DHT22;9099;47.958;11.366;2023-11-22T12:53:19;4.50;99.90
17948;DHT22;9099;47.958;11.366;2023-11-22T12:55:49;4.50;99.90
17948;DHT22;9099;47.958;11.366;2023-11-22T12:58:17;4.40;99.90
17948;DHT22;9099;47.958;11.366;2023-11-22T13:00:44;4.50;99.90
17948;DHT22;9099;47.958;11.366;2023-11-22T13:03:12;4.40;99.90
17948;DHT22;9099;47.958;11.366;2023-11-22T13:05:40;4.40;99.90
17948;DHT22;9099;47.958;11.366;2023-11-22T13:08:10;4.40;99.90
17948;DHT22;9099;47.958;11.366;2023-11-22T13:10:38;4.30;99.90
17948;DHT22;9099;47.958;11.366;2023-11-22T13:13:05;4.30;99.90
17948;DHT22;9099;47.958;11.366;2023-11-22T13:15:34;4.40;99.90
17948;DHT22;9099;47.958;11.366;2023-11-22T13:18:02;4.40;99.90
17948;DHT22;9099;47.958;11.366;2023-11-22T13:20:28;4.30;99.90
17948;DHT22;9099;47.958;11.366;2023-11-22T13:22:55;4.40;99.90
17948;DHT22;9099;47.958;11.366;2023-11-22T13:25:24;4.40;99.90
17948;DHT22;9099;47.958;11.366;2023-11-22T13:27:51;4.50;99.90
17948;DHT22;9099;47.958;11.366;2023-11-22T13:30:19;4.50;99.90
17948;DHT22;9099;47.958;11.366;2023-11-22T13:32:48;4.50;99.90
17948;DHT22;9099;47.958;11.366;2023-11-22T13:35:15;4.50;99.90
17948;DHT22;9099;47.958;11.366;2023-11-22T13:37:43;4.50;99.90
17948;DHT22;9099;47.958;11.366;2023-11-22T13:40:12;4.50;99.90
17948;DHT22;9099;47.958;11.366;2023-11-22T13:42:42;4.50;99.90
17948;DHT22;9099;47.958;11.366;2023-11-22T13:45:10;4.50;99.90
17948;DHT22;9099;47.958;11.366;2023-11-22T13:47:41;4.50;99.90
17948;DHT22;9099;47.958;11.366;2023-11-22T13:50:09;4.50;99.90
17948;DHT22;9099;47.958;11.366;2023-11-22T13:52:36;4.50;99.90
17948;DHT22;9099;47.958;11.366;2023-11-22T13:55:04;4.40;99.90
17948;DHT22;9099;47.958;11.366;2023-11-22T13:57:33;4.40;99.90
17948;DHT22;9099;47.958;11.366;2023-11-22T14:00:02;4.30;99.90
17948;DHT22;9099;47.958;11.366;2023-11-22T14:02:32;4.30;99.90
17948;DHT22;9099;47.958;11.366;2023-11-22T14:04:59;4.30;99.90
17948;DHT22;9099;47.958;11.366;2023-11-22T14:07:27;4.40;99.90
17948;DHT22;9099;47.958;11.366;2023-11-22T14:09:54;4.40;99.90
17948;DHT22;9099;47.958;11.366;2023-11-22T14:12:21;4.30;99.90
17948;DHT22;9099;47.958;11.366;2023-11-22T14:14:48;4.30;99.90
17948;DHT22;9099;47.958;11.366;2023-11-22T14:17:18;4.30;99.90
17948;DHT22;9099;47.958;11.366;2023-11-22T14:19:46;4.30;99.90
17948;DHT22;9099;47.958;11.366;2023-11-22T14:22:13;4.30;99.90
17948;DHT22;9099;47.958;11.366;2023-11-22T14:24:40;4.30;99.90
17948;DHT22;9099;47.958;11.366;2023-11-22T14:27:07;4.30;99.90
17948;DHT22;9099;47.958;11.366;2023-11-22T14:29:35;4.30;99.90
17948;DHT22;9099;47.958;11.366;2023-11-22T14:32:03;4.40;99.90
17948;DHT22;9099;47.958;11.366;2023-11-22T14:34:31;4.30;99.90
17948;DHT22;9099;47.958;11.366;2023-11-22T14:36:58;4.10;99.90
17948;DHT22;9099;47.958;11.366;2023-11-22T14:39:24;4.10;99.90
17948;DHT22;9099;47.958;11.366;2023-11-22T14:41:52;4.10;99.90
17948;DHT22;9099;47.958;11.366;2023-11-22T14:44:21;4.10;99.90
17948;DHT22;9099;47.958;11.366;2023-11-22T14:46:48;4.10;99.90
17948;DHT22;9099;47.958;11.366;2023-11-22T14:49:15;4.10;99.90
17948;DHT22;9099;47.958;11.366;2023-11-22T14:51:43;4.10;99.90
17948;DHT22;9099;47.958;11.366;2023-11-22T14:54:10;4.10;99.90
17948;DHT22;9099;47.958;11.366;2023-11-22T14:56:37;4.20;99.90
17948;DHT22;9099;47.958;11.366;2023-11-22T14:59:05;4.30;99.90
17948;DHT22;9099;47.958;11.366;2023-11-22T15:01:32;4.20;99.90
17948;DHT22;9099;47.958;11.366;2023-11-22T15:03:59;4.20;99.90
17948;DHT22;9099;47.958;11.366;2023-11-22T15:06:26;4.20;99.90
17948;DHT22;9099;47.958;11.366;2023-11-22T15:08:54;4.10;99.90
17948;DHT22;9099;47.958;11.366;2023-11-22T15:11:24;4.10;99.90
17948;DHT22;9099;47.958;11.366;2023-11-22T15:13:51;4.10;99.90
17948;DHT22;9099;47.958;11.366;2023-11-22T15:16:18;4.00;99.90
17948;DHT22;9099;47.958;11.366;2023-11-22T15:18:45;4.10;99.90
17948;DHT22;9099;47.958;11.366;2023-11-22T15:21:12;4.00;99.90
17948;DHT22;9099;47.958;11.366;2023-11-22T15:23:39;4.00;99.90
17948;DHT22;9099;47.958;11.366;2023-11-22T15:26:07;4.10;99.90
17948;DHT22;9099;47.958;11.366;2023-11-22T15:28:34;4.10;99.90
17948;DHT22;9099;47.958;11.366;2023-11-22T15:31:01;4.00;99.90
17948;DHT22;9099;47.958;11.366;2023-11-22T15:33:28;4.00;99.90
17948;DHT22;9099;47.958;11.366;2023-11-22T15:35:55;3.90;99.90
17948;DHT22;9099;47.958;11.366;2023-11-22T15:38:21;3.90;99.90
17948;DHT22;9099;47.958;11.366;2023-11-22T15:40:48;3.90;99.90
17948;DHT22;9099;47.958;11.366;2023-11-22T15:43:17;3.90;99.90
17948;DHT22;9099;47.958;11.366;2023-11-22T15:45:44;4.00;99.90
17948;DHT22;9099;47.958;11.366;2023-11-22T15:48:10;4.00;99.90